Time;durP1;ratioP1;P1;durP2;ratioP2;P2;SDS_P1;SDS_P2;PMS_P1;PMS_P2;Temp;Humidity;BMP_temperature;BMP_pressure;BME280_temperature;BME280_humidity;BME280_pressure;Samples;Min_cycle;Max_cycle;Signal;HPM_P1;HPM_P2
2023/10/23 00:00:30;;;;;;;28.27;11.18;;;;;;;-143.21;62.90;71816.38;5074418;28;20198;-90
2023/10/23 00:02:56;;;;;;;39.53;11.57;;;;;;;-143.21;62.83;71816.38;5074177;28;20208;-90
2023/10/23 00:05:41;;;;;;;42.85;12.15;;;;;;;-143.21;62.88;71816.38;5073459;28;20688;-89
2023/10/23 00:08:08;;;;;;;38.53;10.73;;;;;;;-143.21;63.12;71826.28;5074610;28;20664;-90
2023/10/23 00:10:36;;;;;;;34.60;11.75;;;;;;;-143.21;63.20;71818.38;5075405;28;20668;-92
2023/10/23 00:13:17;;;;;;;39.83;12.25;;;;;;;-143.21;63.25;71824.31;5068118;28;20213;-89
2023/10/23 00:15:44;;;;;;;46.75;12.63;;;;;;;-143.21;63.09;71834.22;5053813;28;20257;-89
2023/10/23 00:18:11;;;;;;;43.75;13.38;;;;;;;-143.21;63.28;71834.22;5056548;28;20261;-90
2023/10/23 00:20:38;;;;;;;35.47;12.77;;;;;;;-143.21;63.22;71836.22;5073447;28;20195;-89
2023/10/23 00:23:05;;;;;;;32.85;12.55;;;;;;;-143.21;63.26;71838.19;5073410;28;20186;-90
2023/10/23 00:25:34;;;;;;;38.05;11.73;;;;;;;-143.21;63.60;71846.13;5073527;28;20197;-90
2023/10/23 00:28:02;;;;;;;38.95;12.15;;;;;;;-143.21;64.12;71854.06;5073424;28;20205;-91
2023/10/23 00:30:33;;;;;;;35.75;11.63;;;;;;;-143.21;63.83;71846.13;5071813;28;20229;-89
2023/10/23 00:33:00;;;;;;;35.30;11.23;;;;;;;-143.21;64.37;71856.03;5072991;28;20201;-89
2023/10/23 00:35:27;;;;;;;29.15;10.52;;;;;;;-143.21;64.33;71862.00;5072504;28;20585;-90
2023/10/23 00:38:03;;;;;;;36.90;11.70;;;;;;;-143.21;64.22;71862.00;5073367;28;20190;-89
2023/10/23 00:40:30;;;;;;;36.40;10.48;;;;;;;-143.21;64.71;71873.88;5073896;28;20196;-89
2023/10/23 00:42:57;;;;;;;30.30;10.10;;;;;;;-143.21;65.19;71879.84;5073954;28;20193;-90
2023/10/23 00:45:26;;;;;;;35.55;10.75;;;;;;;-143.21;65.14;71877.84;5073368;28;20205;-91
2023/10/23 00:47:52;;;;;;;35.42;11.45;;;;;;;-143.21;65.21;71875.88;5073317;28;20651;-90
2023/10/23 00:50:20;;;;;;;33.70;10.13;;;;;;;-143.21;65.08;71877.84;5073237;28;20640;-91
2023/10/23 00:52:46;;;;;;;38.60;10.63;;;;;;;-143.21;65.19;71873.88;5073135;28;20197;-91
2023/10/23 00:55:14;;;;;;;34.15;10.80;;;;;;;-143.21;65.18;71881.81;5073220;28;20225;-91
2023/10/23 00:57:41;;;;;;;35.83;10.55;;;;;;;-143.21;65.67;71889.75;5072834;28;20608;-90
2023/10/23 01:00:10;;;;;;;28.77;10.25;;;;;;;-143.21;65.75;71893.72;5073167;28;20197;-90
2023/10/23 01:02:38;;;;;;;41.58;11.10;;;;;;;-143.21;66.03;71889.75;5073853;28;20221;-90
2023/10/23 01:05:06;;;;;;;31.08;10.48;;;;;;;-143.21;65.82;71879.84;5074873;28;20276;-90
2023/10/23 01:07:33;;;;;;;35.08;10.52;;;;;;;-143.21;65.90;71881.81;5074599;28;20200;-90
2023/10/23 01:10:00;;;;;;;28.52;9.55;;;;;;;-143.21;66.28;71885.78;5073888;28;20193;-90
2023/10/23 01:12:26;;;;;;;33.72;10.80;;;;;;;-143.21;66.19;71891.72;5073621;28;20186;-91
2023/10/23 01:14:53;;;;;;;34.65;10.88;;;;;;;-143.21;66.27;71893.72;5074263;28;20213;-90
2023/10/23 01:17:20;;;;;;;27.10;9.15;;;;;;;-143.21;66.14;71889.75;5056381;28;20206;-89
2023/10/23 01:19:49;;;;;;;36.03;10.98;;;;;;;-143.21;66.28;71889.75;5053896;28;20192;-89
2023/10/23 01:22:15;;;;;;;35.50;10.40;;;;;;;-143.21;66.36;71891.72;5053068;28;20661;-90
2023/10/23 01:24:46;;;;;;;33.88;11.05;;;;;;;-143.21;66.30;71881.81;5053296;28;20205;-91
2023/10/23 01:27:14;;;;;;;42.35;11.75;;;;;;;-143.21;66.46;71891.72;5053302;28;20543;-91
2023/10/23 01:29:41;;;;;;;29.33;10.75;;;;;;;-143.21;66.64;71883.81;5053453;28;20594;-91
2023/10/23 01:32:08;;;;;;;29.42;10.73;;;;;;;-143.21;66.67;71887.78;5053624;28;20225;-91
2023/10/23 01:34:35;;;;;;;28.83;10.88;;;;;;;-143.21;66.71;71891.72;5053220;28;20226;-92
2023/10/23 01:37:02;;;;;;;27.65;10.07;;;;;;;-143.21;66.99;71883.81;5053274;28;20209;-92
2023/10/23 01:39:32;;;;;;;41.25;11.30;;;;;;;-143.21;66.85;71883.81;5055857;28;20209;-89
2023/10/23 01:41:59;;;;;;;28.40;10.88;;;;;;;-143.21;66.98;71883.81;5072410;28;20201;-90
2023/10/23 01:44:27;;;;;;;26.63;11.10;;;;;;;-143.21;66.82;71883.81;5072571;28;20284;-90
2023/10/23 01:46:54;;;;;;;31.45;11.10;;;;;;;-143.21;66.75;71879.84;5072569;28;20190;-89
2023/10/23 01:49:20;;;;;;;37.72;11.65;;;;;;;-143.21;67.06;71885.78;5071972;28;20562;-91
2023/10/23 01:51:47;;;;;;;35.50;12.50;;;;;;;-143.21;67.08;71883.81;5071845;28;20193;-87
2023/10/23 01:54:14;;;;;;;41.20;13.50;;;;;;;-143.21;66.82;71885.78;5071545;28;20189;-88
2023/10/23 01:56:41;;;;;;;38.40;12.82;;;;;;;-143.21;67.11;71875.88;5071765;28;20659;-89
2023/10/23 01:59:11;;;;;;;35.53;13.23;;;;;;;-143.21;67.03;71871.91;5064941;28;20206;-87
2023/10/23 02:01:40;;;;;;;35.92;12.35;;;;;;;-143.21;66.84;71873.88;5060177;28;20210;-88
2023/10/23 02:04:07;;;;;;;33.63;12.50;;;;;;;-143.21;67.15;71879.84;5071224;28;20201;-87
2023/10/23 02:06:34;;;;;;;35.42;12.80;;;;;;;-143.21;67.35;71887.78;5071909;28;20194;-86
2023/10/23 02:09:01;;;;;;;37.33;12.38;;;;;;;-143.21;67.61;71891.72;5072004;28;20193;-88
2023/10/23 02:11:28;;;;;;;35.28;11.50;;;;;;;-143.21;67.71;71891.72;5071982;28;20272;-89
2023/10/23 02:13:56;;;;;;;32.78;11.52;;;;;;;-143.21;68.23;71895.69;5059553;28;20198;-88
2023/10/23 02:16:23;;;;;;;32.92;9.93;;;;;;;-143.21;68.52;71905.63;5055879;28;20213;-87
2023/10/23 02:18:51;;;;;;;26.50;11.73;;;;;;;-143.21;68.90;71911.56;5075425;28;20279;-89
2023/10/23 02:21:18;;;;;;;26.05;11.38;;;;;;;-143.21;68.72;71911.56;5063489;28;20234;-88
2023/10/23 02:23:45;;;;;;;36.17;11.07;;;;;;;-143.21;68.67;71909.56;5055922;28;20194;-89
2023/10/23 02:26:12;;;;;;;32.70;12.23;;;;;;;-143.21;68.75;71913.53;5055813;28;20198;-90
2023/10/23 02:28:57;;;;;;;32.60;11.18;;;;;;;-143.21;68.72;71915.53;5055575;28;20198;-89
2023/10/23 02:31:23;;;;;;;36.25;11.90;;;;;;;-143.21;68.73;71911.56;5055638;28;20607;-89
2023/10/23 02:33:52;;;;;;;36.65;12.85;;;;;;;-143.21;68.52;71905.63;5055465;28;20206;-90
2023/10/23 02:36:18;;;;;;;30.35;11.85;;;;;;;-143.21;68.55;71905.63;5055532;28;20222;-90
2023/10/23 02:38:48;;;;;;;32.60;11.82;;;;;;;-143.21;68.50;71905.63;5057749;28;20201;-90
2023/10/23 02:41:15;;;;;;;30.35;10.77;;;;;;;-143.21;68.67;71911.56;5076479;28;20525;-90
2023/10/23 02:43:41;;;;;;;38.97;12.40;;;;;;;-143.21;68.85;71921.47;5077406;28;20205;-91
2023/10/23 02:46:09;;;;;;;32.22;12.00;;;;;;;-143.21;69.00;71921.47;5075473;28;20189;-90
2023/10/23 02:48:36;;;;;;;36.95;11.63;;;;;;;-143.21;69.05;71919.50;5075634;28;20219;-90
2023/10/23 02:51:04;;;;;;;39.55;11.45;;;;;;;-143.21;69.01;71919.50;5075339;28;20190;-90
2023/10/23 02:53:31;;;;;;;33.75;11.02;;;;;;;-143.21;69.11;71921.47;5074922;28;20576;-90
2023/10/23 02:55:58;;;;;;;28.15;10.80;;;;;;;-143.21;69.29;71929.41;5075245;28;20225;-90
2023/10/23 02:58:25;;;;;;;28.42;10.27;;;;;;;-143.21;69.61;71939.31;5075235;28;20196;-89
2023/10/23 03:00:52;;;;;;;33.50;12.60;;;;;;;-143.21;69.79;71947.25;5075357;28;20224;-88
2023/10/23 03:03:37;;;;;;;35.85;11.63;;;;;;;-143.21;69.71;71945.28;5075522;28;20259;-90
2023/10/23 03:06:06;;;;;;;32.75;11.95;;;;;;;-143.21;69.63;71953.19;5075609;28;20201;-90
2023/10/23 03:08:33;;;;;;;36.40;11.45;;;;;;;-143.21;69.79;71947.25;5075459;28;20225;-89
2023/10/23 03:11:00;;;;;;;35.03;12.55;;;;;;;-143.21;69.89;71955.19;5075424;28;20204;-89
2023/10/23 03:13:39;;;;;;;31.77;11.43;;;;;;;-143.21;70.13;71959.16;5075259;28;20201;-90
2023/10/23 03:16:07;;;;;;;31.90;11.57;;;;;;;-143.21;70.28;71951.22;5075080;28;20320;-90
2023/10/23 03:18:34;;;;;;;39.88;13.75;;;;;;;-143.21;70.23;71959.16;5075201;28;20200;-91
2023/10/23 03:21:03;;;;;;;37.42;13.35;;;;;;;-143.21;70.52;71969.06;5075193;28;20212;-91
2023/10/23 03:23:32;;;;;;;51.90;14.57;;;;;;;-143.21;70.35;71967.09;5075295;28;20265;-92
2023/10/23 03:26:00;;;;;;;54.25;15.07;;;;;;;-143.21;70.06;71971.06;5075045;28;20192;-91
2023/10/23 03:28:25;;;;;;;41.95;13.60;;;;;;;-143.21;70.39;71977.00;5075012;28;20236;-91
2023/10/23 03:30:52;;;;;;;40.13;13.13;;;;;;;-143.21;70.43;71978.97;5074823;28;20228;-89
2023/10/23 03:33:19;;;;;;;44.90;13.55;;;;;;;-143.21;70.57;71975.00;5074823;28;20649;-93
2023/10/23 03:35:47;;;;;;;41.05;14.18;;;;;;;-143.21;70.55;71978.97;5069568;28;20608;-92
2023/10/23 03:38:15;;;;;;;38.47;14.18;;;;;;;-143.21;70.64;71988.91;5073328;28;20204;-90
2023/10/23 03:40:56;;;;;;;34.20;11.97;;;;;;;-143.21;70.72;71990.88;5075168;28;20201;-91
2023/10/23 03:43:33;;;;;;;39.60;12.75;;;;;;;-143.21;71.10;71994.84;5053960;28;20214;-92
2023/10/23 03:46:03;;;;;;;40.95;12.57;;;;;;;-143.21;70.84;71992.88;5055494;28;20178;-91
2023/10/23 03:48:46;;;;;;;38.40;12.65;;;;;;;-143.21;70.90;72000.78;5055498;28;20267;-92
2023/10/23 03:51:13;;;;;;;34.28;12.25;;;;;;;-143.21;71.00;71998.81;5056341;28;20637;-93
2023/10/23 03:53:40;;;;;;;40.88;12.48;;;;;;;-143.21;70.89;72000.78;5056524;28;20210;-92
2023/10/23 03:56:09;;;;;;;34.40;12.93;;;;;;;-143.21;70.94;71992.88;5060224;28;20222;-92
2023/10/23 03:58:36;;;;;;;48.92;15.32;;;;;;;-143.21;70.89;71994.84;5056577;28;20210;-89
2023/10/23 04:01:03;;;;;;;38.58;14.73;;;;;;;-143.21;70.76;71984.94;5070166;28;20200;-90
2023/10/23 04:03:29;;;;;;;36.65;14.57;;;;;;;-143.21;70.88;71990.88;5074508;28;20189;-89
2023/10/23 04:05:56;;;;;;;36.97;14.07;;;;;;;-143.21;70.84;71994.84;5074774;28;20186;-88
2023/10/23 04:08:23;;;;;;;37.07;13.47;;;;;;;-143.21;71.05;71992.88;5074050;28;20208;-89
2023/10/23 04:10:50;;;;;;;38.20;12.37;;;;;;;-143.21;71.33;71990.88;5073392;28;20542;-89
2023/10/23 04:13:19;;;;;;;34.23;11.30;;;;;;;-143.21;71.89;71992.88;5065459;28;20187;-88
2023/10/23 04:15:53;;;;;;;43.80;11.82;;;;;;;-143.21;71.91;71994.84;5052958;28;20825;-89
2023/10/23 04:18:27;;;;;;;44.87;11.67;;;;;;;-143.21;71.89;71994.84;5053619;28;20200;-88
2023/10/23 04:21:03;;;;;;;34.92;11.38;;;;;;;-143.21;72.51;72012.69;5053792;28;20202;-89
2023/10/23 04:23:30;;;;;;;26.67;10.87;;;;;;;-143.21;72.64;72018.63;5053194;28;20182;-88
2023/10/23 04:25:57;;;;;;;28.07;10.00;;;;;;;-143.21;73.01;72030.53;5053354;28;20276;-87
2023/10/23 04:28:25;;;;;;;34.87;11.40;;;;;;;-143.21;73.28;72032.53;5055113;28;20626;-81
2023/10/23 04:30:52;;;;;;;37.27;11.03;;;;;;;-143.21;72.94;72026.56;5052838;28;20253;-81
2023/10/23 04:33:21;;;;;;;26.97;11.27;;;;;;;-143.21;72.83;72022.59;5072056;28;20216;-81
2023/10/23 04:35:50;;;;;;;33.73;11.47;;;;;;;-143.21;73.02;72022.59;5052465;28;20218;-81
2023/10/23 04:38:16;;;;;;;35.55;11.27;;;;;;;-143.21;72.70;72018.63;5061472;28;20206;-81
2023/10/23 04:40:44;;;;;;;39.70;10.70;;;;;;;-143.21;72.91;72026.56;5072215;28;20190;-80
2023/10/23 04:43:11;;;;;;;30.88;10.82;;;;;;;-143.21;72.89;72028.56;5072620;28;20295;-80
2023/10/23 04:45:40;;;;;;;32.10;10.50;;;;;;;-143.21;72.99;72018.63;5074149;28;20193;-80
2023/10/23 04:48:07;;;;;;;30.07;9.93;;;;;;;-143.21;72.65;72014.69;5074684;28;20205;-79
2023/10/23 04:50:34;;;;;;;41.28;10.00;;;;;;;-143.21;72.41;72012.69;5071857;28;20193;-79
2023/10/23 04:53:04;;;;;;;42.80;10.60;;;;;;;-143.21;72.33;72012.69;5054852;28;20205;-80
2023/10/23 04:55:34;;;;;;;35.45;11.15;;;;;;;-143.21;72.28;72010.72;5050389;28;20193;-79
2023/10/23 04:58:01;;;;;;;34.75;11.10;;;;;;;-143.21;72.04;72006.75;5057930;28;20233;-82
2023/10/23 05:00:28;;;;;;;29.55;10.50;;;;;;;-143.21;72.04;72002.78;5071246;28;20243;-81
2023/10/23 05:02:56;;;;;;;27.63;10.17;;;;;;;-143.21;72.32;72006.75;5071620;28;20200;-84
2023/10/23 05:05:23;;;;;;;40.78;11.55;;;;;;;-143.21;72.15;72008.72;5070990;28;20211;-85
2023/10/23 05:07:53;;;;;;;41.88;11.40;;;;;;;-143.21;71.99;72014.69;5070349;28;20663;-85
2023/10/23 05:10:20;;;;;;;32.10;11.90;;;;;;;-143.21;72.10;72018.63;5071637;28;20196;-85
2023/10/23 05:12:49;;;;;;;36.70;12.05;;;;;;;-143.21;72.08;72028.56;5071791;28;20204;-83
2023/10/23 05:15:16;;;;;;;33.67;12.13;;;;;;;-143.21;71.78;72020.63;5071814;28;20189;-82
2023/10/23 05:17:43;;;;;;;36.17;11.05;;;;;;;-143.21;71.51;72014.69;5070762;28;20221;-81
2023/10/23 05:20:12;;;;;;;28.45;11.00;;;;;;;-143.21;71.22;72018.63;5081803;28;20679;-82
2023/10/23 05:22:41;;;;;;;40.85;11.50;;;;;;;-143.21;71.42;72018.63;5073139;28;20300;-81
2023/10/23 05:25:09;;;;;;;29.23;11.30;;;;;;;-143.21;71.31;72020.63;5072129;28;20197;-82
2023/10/23 05:27:36;;;;;;;29.88;9.77;;;;;;;-143.21;71.23;72018.63;5072403;28;20205;-81
2023/10/23 05:30:04;;;;;;;32.33;11.27;;;;;;;-143.21;71.25;72022.59;5072651;28;20564;-81
2023/10/23 05:32:34;;;;;;;43.88;11.30;;;;;;;-143.21;71.09;72014.69;5072900;28;20193;-82
2023/10/23 05:35:01;;;;;;;29.73;11.13;;;;;;;-143.21;71.09;72012.69;5053870;28;20642;-81
2023/10/23 05:37:30;;;;;;;38.40;11.25;;;;;;;-143.21;71.38;72012.69;5053689;28;20221;-82
2023/10/23 05:39:56;;;;;;;50.35;11.73;;;;;;;-143.21;71.39;72012.69;5055796;28;20217;-82
2023/10/23 05:42:23;;;;;;;32.03;10.15;;;;;;;-143.21;71.47;72014.69;5057757;28;20201;-82
2023/10/23 05:44:57;;;;;;;41.35;11.40;;;;;;;-143.21;71.10;72006.75;5071828;28;20664;-83
2023/10/23 05:47:25;;;;;;;35.65;10.98;;;;;;;-143.21;71.26;72010.72;5071552;28;20645;-81
2023/10/23 05:49:53;;;;;;;40.13;10.75;;;;;;;-143.21;71.15;72008.72;5075159;28;20285;-82
2023/10/23 05:52:19;;;;;;;32.72;10.90;;;;;;;-143.21;71.03;71998.81;5075399;28;20228;-82
2023/10/23 05:55:04;;;;;;;33.95;11.25;;;;;;;-143.21;70.97;72000.78;5075469;28;20205;-82
2023/10/23 05:57:31;;;;;;;38.88;10.98;;;;;;;-143.21;70.95;71998.81;5075434;28;20212;-82
2023/10/23 06:00:04;;;;;;;34.13;10.57;;;;;;;-143.21;70.76;71994.84;5075454;28;20243;-82
2023/10/23 06:02:31;;;;;;;36.35;9.85;;;;;;;-143.21;70.59;71990.88;5075122;28;20189;-82
2023/10/23 06:04:58;;;;;;;32.03;11.13;;;;;;;-143.21;70.23;71982.94;5075399;28;20228;-82
2023/10/23 06:07:25;;;;;;;44.85;12.05;;;;;;;-143.21;70.29;71980.97;5075483;28;20299;-83
2023/10/23 06:09:52;;;;;;;40.42;11.98;;;;;;;-143.21;70.23;71978.97;5075269;28;20203;-83
2023/10/23 06:12:20;;;;;;;44.88;11.90;;;;;;;-143.21;70.00;71967.09;5075116;28;20200;-82
2023/10/23 06:14:47;;;;;;;48.08;12.18;;;;;;;-143.21;69.74;71967.09;5075003;28;20292;-83
2023/10/23 06:17:14;;;;;;;51.65;12.98;;;;;;;-143.21;69.66;71977.00;5071248;28;20229;-82
2023/10/23 06:19:41;;;;;;;45.13;11.45;;;;;;;-143.21;69.89;71984.94;5072092;28;20204;-82
2023/10/23 06:22:07;;;;;;;31.30;10.35;;;;;;;-143.21;70.34;72000.78;5075089;28;20201;-82
2023/10/23 06:24:34;;;;;;;34.30;11.40;;;;;;;-143.21;71.21;72030.53;5074742;28;20201;-82
2023/10/23 06:27:01;;;;;;;40.08;12.05;;;;;;;-143.21;71.15;72034.50;5075245;28;20293;-83
2023/10/23 06:29:29;;;;;;;53.22;22.25;;;;;;;-143.21;71.38;72036.50;5073995;28;20201;-83
2023/10/23 06:31:56;;;;;;;42.45;16.75;;;;;;;-143.21;71.39;72032.53;5073052;28;20217;-83
2023/10/23 06:34:23;;;;;;;37.15;13.00;;;;;;;-143.21;71.26;72020.63;5074136;28;20197;-83
2023/10/23 06:36:50;;;;;;;40.13;13.07;;;;;;;-143.21;70.83;72008.72;5074263;28;20719;-83
2023/10/23 06:39:17;;;;;;;42.50;12.60;;;;;;;-143.21;70.70;72006.75;5074495;28;20200;-83
2023/10/23 06:41:43;;;;;;;38.08;12.20;;;;;;;-143.21;71.01;72006.75;5074650;28;20189;-83
2023/10/23 06:44:11;;;;;;;37.22;12.00;;;;;;;-143.21;70.74;72004.75;5077299;28;20268;-91
2023/10/23 06:47:05;;;;;;;43.38;11.80;;;;;;;-143.21;71.16;72018.63;5078325;28;20241;-91
2023/10/23 06:49:34;;;;;;;40.45;12.48;;;;;;;-143.21;71.33;72030.53;5077229;28;20197;-90
2023/10/23 06:52:01;;;;;;;31.75;10.57;;;;;;;-143.21;71.58;72034.50;5079098;28;20679;-90
2023/10/23 06:55:02;;;;;;;36.92;10.88;;;;;;;-143.21;71.39;72016.66;5078580;28;20205;-90
2023/10/23 06:57:29;;;;;;;40.55;9.30;;;;;;;-143.21;70.50;72006.75;5078068;28;20209;-90
2023/10/23 06:59:56;;;;;;;34.10;9.65;;;;;;;-143.21;70.50;72012.69;5079705;28;20194;-91
2023/10/23 07:02:23;;;;;;;35.00;10.02;;;;;;;-143.21;70.43;72000.78;5080554;28;20189;-90
2023/10/23 07:04:52;;;;;;;35.40;10.18;;;;;;;-143.21;70.76;71998.81;5079880;28;20289;-90
2023/10/23 07:07:28;;;;;;;38.33;10.30;;;;;;;-143.21;70.82;71994.84;5076374;28;20251;-91
2023/10/23 07:09:58;;;;;;;44.88;10.45;;;;;;;-143.21;70.45;71980.97;5076186;28;20684;-91
2023/10/23 07:12:26;;;;;;;43.53;10.55;;;;;;;-143.21;70.10;71977.00;5077385;28;20236;-90
2023/10/23 07:14:53;;;;;;;39.78;10.38;;;;;;;-143.21;69.90;71961.13;5078352;28;20193;-90
2023/10/23 07:17:20;;;;;;;35.53;9.88;;;;;;;-143.21;69.29;71943.28;5076667;28;20312;-93
2023/10/23 07:19:47;;;;;;;38.60;10.15;;;;;;;-143.21;68.74;71931.38;5077380;28;20193;-90
2023/10/23 07:22:15;;;;;;;46.80;13.30;;;;;;;-143.21;68.24;71913.53;5078153;28;20197;-89
2023/10/23 07:24:42;;;;;;;33.25;9.75;;;;;;;-143.21;67.73;71899.66;5076450;28;20198;-90
2023/10/23 07:27:14;;;;;;;30.05;9.38;;;;;;;-143.21;67.77;71901.66;5076024;28;20197;-88
2023/10/23 07:29:41;;;;;;;32.92;10.18;;;;;;;-143.21;67.47;71897.69;5075207;28;20205;-88
2023/10/23 07:32:25;;;;;;;36.63;10.02;;;;;;;-143.21;67.36;71889.75;5068581;28;20241;-82
2023/10/23 07:34:55;;;;;;;36.50;10.02;;;;;;;-143.21;67.19;71885.78;5054764;28;20200;-85
2023/10/23 07:37:32;;;;;;;34.50;10.25;;;;;;;-143.21;67.04;71881.81;5058266;28;20274;-85
2023/10/23 07:40:00;;;;;;;35.78;11.35;;;;;;;-143.21;66.98;71871.91;5074277;28;20788;-87
2023/10/23 07:42:28;;;;;;;35.33;10.23;;;;;;;-143.21;66.20;71858.03;5073850;28;20201;-86
2023/10/23 07:44:56;;;;;;;33.63;11.63;;;;;;;-143.21;65.98;71860.00;5073853;28;20202;-84
2023/10/23 07:47:23;;;;;;;44.47;11.00;;;;;;;-143.21;65.56;71852.06;5074001;28;20621;-83
2023/10/23 07:49:50;;;;;;;33.28;10.95;;;;;;;-143.21;65.54;71846.13;5073810;28;20194;-84
2023/10/23 07:52:17;;;;;;;32.70;11.60;;;;;;;-143.21;65.30;71834.22;5074142;28;20206;-83
2023/10/23 07:54:49;;;;;;;41.67;11.95;;;;;;;-143.21;64.91;71828.28;5074220;28;20614;-84
2023/10/23 07:57:16;;;;;;;41.50;12.80;;;;;;;-143.21;64.53;71828.28;5073627;28;20300;-83
2023/10/23 07:59:51;;;;;;;40.33;11.30;;;;;;;-143.21;64.99;71836.22;5073612;28;20190;-87
2023/10/23 08:08:47;;;;;;;40.30;12.00;;;;;;;-143.21;64.26;71804.47;5073451;28;20239;-84
2023/10/23 08:11:15;;;;;;;42.67;11.80;;;;;;;-143.21;64.05;71796.56;5073539;28;20674;-83
2023/10/23 08:13:42;;;;;;;40.22;12.57;;;;;;;-143.21;63.83;71790.59;5072233;28;20197;-84
2023/10/23 08:16:09;;;;;;;36.65;11.88;;;;;;;-143.21;63.49;71784.66;5073053;28;20212;-83
2023/10/23 08:18:36;;;;;;;36.13;12.02;;;;;;;-143.21;63.11;71776.72;5073024;28;20229;-82
2023/10/23 08:21:14;;;;;;;32.67;11.68;;;;;;;-143.21;63.17;71764.81;5073103;28;20197;-80
2023/10/23 08:23:41;;;;;;;43.95;12.10;;;;;;;-143.21;63.23;71739.06;5072957;28;20711;-80
2023/10/23 08:26:11;;;;;;;38.72;12.63;;;;;;;-143.21;62.81;71729.13;5072256;28;20660;-80
2023/10/23 08:28:40;;;;;;;49.65;12.77;;;;;;;-143.21;61.78;71705.34;5058604;28;20198;-81
2023/10/23 08:31:08;;;;;;;42.58;12.27;;;;;;;-143.21;61.09;71701.38;5052117;28;20257;-80
2023/10/23 08:33:35;;;;;;;50.13;12.02;;;;;;;-143.21;61.20;71693.44;5051723;28;20763;-81
2023/10/23 08:36:03;;;;;;;52.75;12.13;;;;;;;-143.21;60.76;71693.44;5064695;28;20201;-82
2023/10/23 08:38:29;;;;;;;36.47;12.60;;;;;;;-143.21;60.69;71683.53;5072380;28;20598;-79
2023/10/23 08:40:56;;;;;;;38.28;12.20;;;;;;;-143.21;60.54;71681.56;5072507;28;20197;-80
2023/10/23 08:43:24;;;;;;;33.65;11.75;;;;;;;-143.21;60.26;71651.81;5072414;28;20280;-81
2023/10/23 08:45:58;;;;;;;37.28;12.07;;;;;;;-143.21;59.29;71614.13;5072567;28;20197;-80
2023/10/23 08:48:25;;;;;;;32.10;12.25;;;;;;;-143.21;58.17;71580.44;5072023;28;20208;-80
2023/10/23 08:50:52;;;;;;;47.30;13.80;;;;;;;-143.21;57.48;71550.69;5072061;28;20197;-79
2023/10/23 08:53:23;;;;;;;46.60;13.95;;;;;;;-143.21;55.82;71515.00;5072254;28;20243;-80
2023/10/23 08:55:54;;;;;;;41.15;14.18;;;;;;;-143.21;54.34;71477.34;5071952;28;20186;-80
2023/10/23 08:58:22;;;;;;;40.78;13.93;;;;;;;-143.21;53.32;71425.78;5054393;28;20249;-79
2023/10/23 09:00:49;;;;;;;49.05;13.57;;;;;;;-143.21;51.98;71376.22;5051819;28;20198;-80
2023/10/23 09:03:19;;;;;;;44.83;14.02;;;;;;;-143.21;50.63;71332.59;5051798;28;20186;-81
2023/10/23 09:05:46;;;;;;;48.58;14.07;;;;;;;-143.21;49.44;71300.88;5051833;28;20198;-80
2023/10/23 09:08:14;;;;;;;45.40;14.30;;;;;;;-143.21;48.84;71257.25;5051830;28;20194;-80
2023/10/23 09:11:02;;;;;;;43.58;12.35;;;;;;;-143.21;48.05;71221.56;5057591;28;20659;-81
2023/10/23 09:13:36;;;;;;;35.20;9.70;;;;;;;-143.21;47.12;71177.97;5072224;28;20216;-82
2023/10/23 09:16:06;;;;;;;43.05;9.45;;;;;;;-143.21;45.69;71140.28;5072261;28;20670;-81
2023/10/23 09:18:34;;;;;;;38.28;10.35;;;;;;;-143.21;44.97;71104.59;5072137;28;20237;-81
2023/10/23 09:21:03;;;;;;;34.70;11.10;;;;;;;-143.21;44.03;71076.84;5072163;28;20201;-81
2023/10/23 09:23:30;;;;;;;45.55;11.82;;;;;;;-143.21;43.93;71072.88;5072642;28;20208;-81
2023/10/23 09:26:00;;;;;;;37.22;11.18;;;;;;;-143.21;43.87;71031.25;5072217;28;20193;-80
2023/10/23 09:28:28;;;;;;;30.73;10.70;;;;;;;-143.21;42.67;70991.63;5072297;28;20563;-82
2023/10/23 09:30:55;;;;;;;42.83;11.07;;;;;;;-143.21;41.71;70953.94;5071644;28;20255;-81
2023/10/23 09:33:23;;;;;;;47.92;10.98;;;;;;;-143.21;41.44;70948.00;5071564;28;20189;-82
2023/10/23 09:35:52;;;;;;;35.15;10.18;;;;;;;-143.21;41.83;70955.94;5071820;28;20668;-81
2023/10/23 09:38:23;;;;;;;38.67;10.50;;;;;;;-143.21;42.24;71001.53;5071821;28;20217;-82
2023/10/23 09:40:49;;;;;;;43.53;10.48;;;;;;;-143.21;42.96;71059.00;5072283;28;20296;-82
2023/10/23 09:43:16;;;;;;;51.88;11.30;;;;;;;-143.21;43.64;71090.72;5071826;28;20631;-80
2023/10/23 09:45:43;;;;;;;38.97;10.85;;;;;;;-143.21;44.41;71108.56;5071064;28;20198;-79
2023/10/23 09:48:12;;;;;;;36.35;10.13;;;;;;;-143.21;44.70;71116.50;5071755;28;20644;-79
2023/10/23 09:50:43;;;;;;;37.78;10.43;;;;;;;-143.21;44.69;71108.56;5071580;28;20208;-80
2023/10/23 09:53:13;;;;;;;40.38;11.27;;;;;;;-143.21;44.67;71110.56;5071636;28;20284;-80
2023/10/23 09:55:42;;;;;;;25.88;8.38;;;;;;;-143.21;45.94;71086.75;5071599;28;20308;-79
2023/10/23 09:58:13;;;;;;;44.10;10.85;;;;;;;-143.21;44.52;71086.75;5071387;28;20251;-78
2023/10/23 10:00:41;;;;;;;42.55;10.95;;;;;;;-143.21;43.51;71041.16;5063216;28;20619;-78
2023/10/23 10:03:17;;;;;;;43.60;10.15;;;;;;;-143.21;43.01;70995.56;5071317;28;20198;-81
2023/10/23 10:05:50;;;;;;;35.08;10.77;;;;;;;-143.21;42.12;70942.06;5071122;28;20745;-81
2023/10/23 10:08:21;;;;;;;36.97;9.82;;;;;;;-143.21;40.91;70862.75;5071118;28;20196;-81
2023/10/23 10:10:48;;;;;;;39.00;9.88;;;;;;;-143.21;40.38;70815.19;5071364;28;20190;-81
2023/10/23 10:13:16;;;;;;;34.28;10.77;;;;;;;-143.21;38.96;70775.53;5071854;28;20229;-81
2023/10/23 10:15:47;;;;;;;30.92;10.15;;;;;;;-143.21;38.39;70753.72;5070856;28;20193;-78
2023/10/23 10:18:16;;;;;;;37.45;9.75;;;;;;;-143.21;38.59;70761.66;5072412;28;20201;-85
2023/10/23 10:20:48;;;;;;;34.42;10.20;;;;;;;-143.21;38.60;70797.34;5072133;28;20198;-86
2023/10/23 10:23:17;;;;;;;39.72;9.52;;;;;;;-143.21;39.57;70838.97;5071687;28;20181;-86
2023/10/23 10:25:48;;;;;;;32.97;9.98;;;;;;;-143.21;40.02;70890.50;5071777;28;20300;-85
2023/10/23 10:28:15;;;;;;;54.85;17.80;;;;;;;-143.21;40.73;70942.06;5072393;28;20186;-88
2023/10/23 10:30:45;;;;;;;41.22;10.82;;;;;;;-143.21;41.73;70987.66;5072740;28;20251;-88
2023/10/23 10:33:20;;;;;;;41.90;10.80;;;;;;;-143.21;42.59;71031.25;5072329;28;20201;-83
2023/10/23 10:35:53;;;;;;;48.55;11.38;;;;;;;-143.21;43.26;71061.00;5068878;28;20197;-83
2023/10/23 10:38:22;;;;;;;35.30;10.57;;;;;;;-143.21;43.82;71086.75;5054889;28;20236;-84
2023/10/23 10:41:02;;;;;;;40.70;10.65;;;;;;;-143.21;44.22;71078.84;5054886;28;20194;-85
2023/10/23 10:43:32;;;;;;;42.38;10.65;;;;;;;-143.21;44.06;71074.88;5055046;28;20676;-83
2023/10/23 10:46:02;;;;;;;40.33;10.93;;;;;;;-143.21;43.98;71043.16;5054706;28;20178;-83
2023/10/23 10:48:42;;;;;;;45.70;10.30;;;;;;;-143.21;42.72;70957.91;5054796;28;20186;-85
2023/10/23 10:51:10;;;;;;;35.33;9.63;;;;;;;-143.21;41.02;70872.66;5054636;28;20178;-84
2023/10/23 10:53:41;;;;;;;30.48;8.90;;;;;;;-143.21;39.69;70765.63;5054738;28;20198;-84
2023/10/23 10:56:10;;;;;;;38.70;9.63;;;;;;;-143.21;38.10;70660.56;5054852;28;20221;-84
2023/10/23 10:58:38;;;;;;;44.22;9.50;;;;;;;-143.21;36.48;70575.34;5054307;28;20229;-83
2023/10/23 11:01:07;;;;;;;34.33;8.85;;;;;;;-143.21;34.23;70515.88;5054355;28;20643;-83
2023/10/23 11:03:37;;;;;;;32.20;7.70;;;;;;;-143.21;33.17;70464.34;5053953;28;20206;-82
2023/10/23 11:06:08;;;;;;;27.98;7.82;;;;;;;-143.21;32.48;70414.78;5053902;28;20205;-83
2023/10/23 11:08:39;;;;;;;30.67;7.13;;;;;;;-143.21;32.06;70373.16;5054234;28;20179;-82
2023/10/23 11:11:07;;;;;;;40.95;7.32;;;;;;;-143.21;31.78;70400.91;5054380;28;20277;-82
2023/10/23 11:13:35;;;;;;;26.65;6.88;;;;;;;-143.21;31.64;70369.19;5054099;28;20190;-82
2023/10/23 11:16:16;;;;;;;32.03;6.50;;;;;;;-143.21;31.27;70315.69;5053579;28;20202;-81